Time;durP1;ratioP1;P1;durP2;ratioP2;P2;SDS_P1;SDS_P2;PMS_P1;PMS_P2;Temp;Humidity;BMP_temperature;BMP_pressure;BME280_temperature;BME280_humidity;BME280_pressure;Samples;Min_cycle;Max_cycle;Signal;HPM_P1;HPM_P2
2022/06/09 00:01:22;;;;;;;1.23;0.37;;;19.60;99.90;;;;;;4306441;33;20080;-65
2022/06/09 00:03:53;;;;;;;0.20;0.20;;;19.60;99.90;;;;;;4303614;33;20096;-65
2022/06/09 00:06:20;;;;;;;0.32;0.32;;;19.60;99.90;;;;;;4305715;33;20085;-65
2022/06/09 00:08:51;;;;;;;3.70;0.93;;;19.50;99.90;;;;;;4306153;33;20612;-65
2022/06/09 00:11:21;;;;;;;0.32;0.32;;;19.40;99.90;;;;;;4305966;33;20133;-65
2022/06/09 00:13:47;;;;;;;0.40;0.40;;;19.40;99.90;;;;;;4305502;33;20063;-65
2022/06/09 00:16:13;;;;;;;0.30;0.30;;;19.40;99.90;;;;;;4308140;33;20125;-65
2022/06/09 00:18:40;;;;;;;0.25;0.25;;;19.30;99.90;;;;;;4306927;33;20080;-65
2022/06/09 00:21:06;;;;;;;0.32;0.32;;;19.30;99.90;;;;;;4295702;33;20129;-65
2022/06/09 00:23:32;;;;;;;0.40;0.40;;;19.30;99.90;;;;;;4304411;33;20152;-65
2022/06/09 00:25:57;;;;;;;0.50;0.50;;;19.30;99.90;;;;;;4306422;33;20072;-65
2022/06/09 00:28:23;;;;;;;0.40;0.40;;;19.40;99.90;;;;;;4305296;33;20075;-65
2022/06/09 00:30:49;;;;;;;0.43;0.43;;;19.30;99.90;;;;;;4306157;33;20088;-65
2022/06/09 00:33:14;;;;;;;0.30;0.30;;;19.40;99.90;;;;;;4306077;33;20300;-65
2022/06/09 00:35:40;;;;;;;0.40;0.40;;;19.30;99.90;;;;;;4308092;33;20068;-65
2022/06/09 00:38:06;;;;;;;0.73;0.62;;;19.30;99.90;;;;;;4305449;33;20076;-65
2022/06/09 00:40:32;;;;;;;0.30;0.30;;;19.30;99.90;;;;;;4306618;33;20433;-65
2022/06/09 00:43:00;;;;;;;1.08;0.47;;;19.30;99.90;;;;;;4306450;33;20566;-65
2022/06/09 00:45:33;;;;;;;0.30;0.30;;;19.30;99.90;;;;;;4306659;33;20077;-65
2022/06/09 00:48:26;;;;;;;0.52;0.45;;;19.20;99.90;;;;;;4303179;33;20120;-65
2022/06/09 00:51:00;;;;;;;0.40;0.40;;;19.20;99.90;;;;;;4294839;33;20087;-65
2022/06/09 00:53:36;;;;;;;0.20;0.20;;;19.20;99.90;;;;;;4303543;33;20105;-65
2022/06/09 00:56:02;;;;;;;14.00;0.82;;;19.30;99.90;;;;;;4304880;33;20092;-65
2022/06/09 00:58:32;;;;;;;0.50;0.50;;;19.30;99.90;;;;;;4304395;33;20073;-66
2022/06/09 01:01:02;;;;;;;0.30;0.30;;;19.30;99.90;;;;;;4305570;33;20128;-65
2022/06/09 01:03:45;;;;;;;0.40;0.40;;;19.20;99.90;;;;;;4303356;33;20080;-65
2022/06/09 01:06:17;;;;;;;0.30;0.30;;;19.20;99.90;;;;;;4305473;33;20097;-65
2022/06/09 01:08:49;;;;;;;0.30;0.30;;;19.30;99.90;;;;;;4306240;33;20145;-65
2022/06/09 01:11:14;;;;;;;0.43;0.40;;;19.30;99.90;;;;;;4303531;33;20565;-65
2022/06/09 01:13:41;;;;;;;0.25;0.25;;;19.30;99.90;;;;;;4305643;33;20084;-65
2022/06/09 01:16:10;;;;;;;0.45;0.43;;;19.20;99.90;;;;;;4291020;33;20104;-65
2022/06/09 01:18:39;;;;;;;0.50;0.50;;;19.20;99.90;;;;;;4304824;33;20552;-65
2022/06/09 01:21:31;;;;;;;0.32;0.32;;;19.10;99.90;;;;;;4295478;33;20071;-65
2022/06/09 01:24:17;;;;;;;0.50;0.50;;;19.10;99.90;;;;;;4302718;33;20474;-66
2022/06/09 01:27:00;;;;;;;0.30;0.30;;;19.00;99.90;;;;;;4308573;33;20212;-66
2022/06/09 01:29:37;;;;;;;0.55;0.40;;;18.90;99.90;;;;;;4305110;33;20076;-66
2022/06/09 01:32:14;;;;;;;0.20;0.20;;;18.90;99.90;;;;;;4302157;33;80808;-66
2022/06/09 01:34:54;;;;;;;0.40;0.40;;;18.90;99.90;;;;;;4305180;33;20060;-65
2022/06/09 01:37:27;;;;;;;0.30;0.30;;;18.80;99.90;;;;;;4305141;33;20076;-65
2022/06/09 01:39:57;;;;;;;0.20;0.20;;;18.80;99.90;;;;;;4303479;33;20095;-65
2022/06/09 01:42:41;;;;;;;0.20;0.20;;;18.90;99.90;;;;;;4304261;33;20119;-65
2022/06/09 01:45:10;;;;;;;0.57;0.40;;;18.90;99.90;;;;;;4291471;33;20458;-65
2022/06/09 01:48:04;;;;;;;0.35;0.30;;;18.80;99.90;;;;;;4305956;33;20072;-65
2022/06/09 01:50:36;;;;;;;1.02;0.50;;;18.80;99.90;;;;;;4300914;33;20229;-65
2022/06/09 01:53:10;;;;;;;0.43;0.32;;;18.80;99.90;;;;;;4295555;33;20181;-66
2022/06/09 01:55:40;;;;;;;0.47;0.45;;;18.80;99.90;;;;;;4301470;33;20083;-66
2022/06/09 01:58:08;;;;;;;0.20;0.20;;;18.80;99.90;;;;;;4301526;33;20075;-65
2022/06/09 02:00:36;;;;;;;0.22;0.22;;;18.80;99.90;;;;;;4307154;33;20072;-65
2022/06/09 02:03:05;;;;;;;0.32;0.32;;;18.80;99.90;;;;;;4306699;33;20072;-65
2022/06/09 02:05:37;;;;;;;0.20;0.20;;;18.80;99.90;;;;;;4304293;33;20068;-65
2022/06/09 02:08:06;;;;;;;0.30;0.30;;;18.70;99.90;;;;;;4300385;33;20443;-65
2022/06/09 02:10:36;;;;;;;0.50;0.50;;;18.60;99.90;;;;;;4304394;33;20080;-65
2022/06/09 02:13:06;;;;;;;0.30;0.30;;;18.60;99.90;;;;;;4302664;33;20119;-65
2022/06/09 02:15:36;;;;;;;0.30;0.30;;;18.70;99.90;;;;;;4302972;33;20067;-65
2022/06/09 02:18:06;;;;;;;0.30;0.30;;;18.70;99.90;;;;;;4304254;33;20132;-65
2022/06/09 02:20:32;;;;;;;0.22;0.22;;;18.60;99.90;;;;;;4300217;33;20115;-65
2022/06/09 02:22:58;;;;;;;0.22;0.22;;;18.40;99.90;;;;;;4297917;33;20470;-65
2022/06/09 02:25:23;;;;;;;0.50;0.50;;;18.40;99.90;;;;;;4304961;33;20060;-65
2022/06/09 02:27:49;;;;;;;0.35;0.35;;;18.30;99.90;;;;;;4305694;33;20056;-65
2022/06/09 02:30:14;;;;;;;0.32;0.32;;;18.30;99.90;;;;;;4304670;33;20201;-65
2022/06/09 02:32:39;;;;;;;0.30;0.30;;;18.20;99.90;;;;;;4302971;33;20057;-65
2022/06/09 02:35:06;;;;;;;0.30;0.30;;;18.10;99.90;;;;;;4304951;33;20072;-65
2022/06/09 02:37:31;;;;;;;0.30;0.30;;;18.10;99.90;;;;;;4305688;33;20061;-65
2022/06/09 02:39:57;;;;;;;0.20;0.20;;;18.00;99.90;;;;;;4305212;33;20108;-65
2022/06/09 02:42:22;;;;;;;0.20;0.20;;;17.90;99.90;;;;;;4303109;33;20084;-65
2022/06/09 02:44:48;;;;;;;0.80;0.47;;;17.90;99.90;;;;;;4303453;33;20148;-65
2022/06/09 02:47:13;;;;;;;0.47;0.47;;;17.90;99.90;;;;;;4304587;33;20068;-65
2022/06/09 02:49:39;;;;;;;0.25;0.25;;;18.00;99.90;;;;;;4303111;33;20068;-65
2022/06/09 02:52:05;;;;;;;0.32;0.32;;;17.90;99.90;;;;;;4294468;33;20069;-65
2022/06/09 02:54:30;;;;;;;0.45;0.45;;;17.90;99.90;;;;;;4302122;33;20137;-65
2022/06/09 02:56:56;;;;;;;0.20;0.20;;;17.90;99.90;;;;;;4305839;33;20076;-65
2022/06/09 02:59:21;;;;;;;0.20;0.20;;;17.80;99.90;;;;;;4304853;33;20382;-65
2022/06/09 03:01:47;;;;;;;0.50;0.40;;;17.80;99.90;;;;;;4304356;33;20072;-65
2022/06/09 03:04:12;;;;;;;0.62;0.62;;;17.70;99.90;;;;;;4303997;33;20089;-65
2022/06/09 03:06:38;;;;;;;0.20;0.20;;;17.80;99.90;;;;;;4304200;33;20111;-65
2022/06/09 03:09:04;;;;;;;0.20;0.20;;;17.70;99.90;;;;;;4303097;33;20492;-65
2022/06/09 03:11:29;;;;;;;0.35;0.35;;;17.70;99.90;;;;;;4302705;33;20076;-65
2022/06/09 03:13:55;;;;;;;0.70;0.37;;;17.60;99.90;;;;;;4306804;33;20099;-66
2022/06/09 03:16:20;;;;;;;0.47;0.47;;;17.60;99.90;;;;;;4304733;33;20076;-66
2022/06/09 03:18:46;;;;;;;1.17;0.62;;;17.50;99.90;;;;;;4304514;33;21117;-65
2022/06/09 03:21:12;;;;;;;0.30;0.30;;;17.50;99.90;;;;;;4297711;33;20064;-65
2022/06/09 03:23:39;;;;;;;0.20;0.20;;;17.50;99.90;;;;;;4304875;33;20092;-65
2022/06/09 03:26:04;;;;;;;0.35;0.35;;;17.50;99.90;;;;;;4303778;33;20780;-65
2022/06/09 03:28:30;;;;;;;0.37;0.37;;;17.50;99.90;;;;;;4303132;33;20084;-65
2022/06/09 03:30:56;;;;;;;0.35;0.35;;;17.50;99.90;;;;;;4305773;33;20145;-65
2022/06/09 03:33:21;;;;;;;0.30;0.30;;;17.40;99.90;;;;;;4306772;33;20079;-65
2022/06/09 03:35:47;;;;;;;0.30;0.30;;;17.30;99.90;;;;;;4308338;33;20068;-65
2022/06/09 03:38:13;;;;;;;0.65;0.60;;;17.30;99.90;;;;;;4306123;33;20135;-65
2022/06/09 03:40:40;;;;;;;0.30;0.30;;;17.40;99.90;;;;;;4306062;33;20426;-65
2022/06/09 03:43:06;;;;;;;0.20;0.20;;;17.50;99.90;;;;;;4305218;33;20087;-65
2022/06/09 03:45:33;;;;;;;0.30;0.30;;;17.50;99.90;;;;;;4301922;33;20064;-65
2022/06/09 03:47:58;;;;;;;4.20;0.80;;;17.50;99.90;;;;;;4306420;33;20103;-67
2022/06/09 03:50:26;;;;;;;0.20;0.20;;;17.40;99.90;;;;;;4301086;33;20164;-64
2022/06/09 03:52:52;;;;;;;0.20;0.20;;;17.30;99.90;;;;;;4297736;33;20088;-64
2022/06/09 03:55:18;;;;;;;0.32;0.32;;;17.40;99.90;;;;;;4307422;33;20505;-66
2022/06/09 03:57:44;;;;;;;0.40;0.40;;;17.40;99.90;;;;;;4307206;33;20071;-66
2022/06/09 04:00:16;;;;;;;0.20;0.20;;;17.50;99.90;;;;;;4304682;33;20064;-64
2022/06/09 04:02:41;;;;;;;0.30;0.30;;;17.50;99.90;;;;;;4304230;33;20500;-66
2022/06/09 04:05:07;;;;;;;0.30;0.30;;;17.40;99.90;;;;;;4306768;33;20141;-66
2022/06/09 04:07:32;;;;;;;0.20;0.20;;;17.50;99.90;;;;;;4307322;33;20572;-66
2022/06/09 04:09:58;;;;;;;0.40;0.40;;;17.50;99.90;;;;;;4307950;33;20118;-66
2022/06/09 04:12:24;;;;;;;0.30;0.30;;;17.60;99.90;;;;;;4307439;33;20064;-66
2022/06/09 04:14:50;;;;;;;2.17;0.30;;;17.60;99.90;;;;;;4306277;33;20189;-65
2022/06/09 04:17:16;;;;;;;0.22;0.22;;;17.70;99.90;;;;;;4305524;33;20079;-65
2022/06/09 04:19:41;;;;;;;0.20;0.20;;;17.70;99.90;;;;;;4306687;33;20072;-65
2022/06/09 04:22:07;;;;;;;0.30;0.30;;;17.60;99.90;;;;;;4259651;33;20804;-65
2022/06/09 04:24:33;;;;;;;0.40;0.40;;;17.60;99.90;;;;;;4273088;33;20721;-65
2022/06/09 04:26:59;;;;;;;0.20;0.20;;;17.60;99.90;;;;;;4303146;33;20079;-65
2022/06/09 04:29:24;;;;;;;0.80;0.80;;;17.70;99.90;;;;;;4278045;33;20534;-66
2022/06/09 04:31:50;;;;;;;0.20;0.20;;;17.70;99.90;;;;;;4305850;33;20072;-66
2022/06/09 04:34:16;;;;;;;0.60;0.60;;;17.80;99.90;;;;;;4304005;33;20064;-66
2022/06/09 04:36:41;;;;;;;0.40;0.40;;;17.90;99.90;;;;;;4306916;33;20084;-66
2022/06/09 04:39:08;;;;;;;0.32;0.32;;;18.00;99.90;;;;;;4308380;33;20064;-66
2022/06/09 04:41:34;;;;;;;0.15;0.15;;;18.10;99.90;;;;;;4306023;33;20121;-66
2022/06/09 04:43:59;;;;;;;0.30;0.30;;;18.20;99.90;;;;;;4304781;33;20084;-67
2022/06/09 04:46:25;;;;;;;0.30;0.30;;;18.30;99.90;;;;;;4304492;33;20213;-64
2022/06/09 04:48:51;;;;;;;0.30;0.30;;;18.40;99.90;;;;;;4304864;33;20184;-64
2022/06/09 04:51:19;;;;;;;0.40;0.40;;;18.40;99.90;;;;;;4295204;33;20072;-64
2022/06/09 04:53:46;;;;;;;0.35;0.35;;;18.40;99.90;;;;;;4277446;33;20129;-64
2022/06/09 04:56:12;;;;;;;2.35;0.50;;;18.40;99.90;;;;;;4303771;33;20420;-64
2022/06/09 04:58:39;;;;;;;0.20;0.20;;;18.50;99.90;;;;;;4304888;33;20068;-64
2022/06/09 05:01:06;;;;;;;0.20;0.20;;;18.50;99.90;;;;;;4294373;33;20491;-64
2022/06/09 05:03:32;;;;;;;0.43;0.43;;;18.60;99.90;;;;;;4277931;33;20068;-66
2022/06/09 05:05:58;;;;;;;0.30;0.30;;;18.70;99.90;;;;;;4273729;33;20655;-66
2022/06/09 05:08:24;;;;;;;0.20;0.20;;;18.60;99.90;;;;;;4278414;33;20092;-66
2022/06/09 05:10:49;;;;;;;0.52;0.52;;;18.60;99.90;;;;;;4294882;33;20092;-66
2022/06/09 05:13:15;;;;;;;0.40;0.37;;;18.60;99.90;;;;;;4284986;33;20123;-66
2022/06/09 05:15:49;;;;;;;0.20;0.20;;;18.60;99.90;;;;;;4298893;33;20092;-66
2022/06/09 05:18:14;;;;;;;0.20;0.20;;;18.50;99.90;;;;;;4214385;33;20147;-66
2022/06/09 05:20:40;;;;;;;0.65;0.60;;;18.50;99.90;;;;;;4238610;33;20092;-66
2022/06/09 05:23:05;;;;;;;0.30;0.30;;;18.60;99.90;;;;;;4246700;33;20335;-66
2022/06/09 05:25:31;;;;;;;0.30;0.30;;;18.40;99.90;;;;;;4275672;33;20486;-66
2022/06/09 05:27:59;;;;;;;0.20;0.20;;;18.50;99.90;;;;;;4260700;33;20537;-66
2022/06/09 05:30:25;;;;;;;0.30;0.30;;;18.50;99.90;;;;;;4241782;33;21330;-66
2022/06/09 05:32:51;;;;;;;0.45;0.45;;;18.50;99.90;;;;;;4254970;33;20104;-67
2022/06/09 05:35:18;;;;;;;0.30;0.30;;;18.50;99.90;;;;;;4260896;33;20084;-66
2022/06/09 05:45:17;;;;;;;0.35;0.30;;;18.60;99.90;;;;;;4276838;33;20079;-66
2022/06/09 05:46:04;;;;;;;0.20;0.20;;;18.60;99.90;;;;;;4290363;33;20331;-67
2022/06/09 05:48:30;;;;;;;0.30;0.30;;;18.60;99.90;;;;;;4290482;33;20092;-66
2022/06/09 05:50:56;;;;;;;0.20;0.20;;;18.60;99.90;;;;;;4299959;33;20438;-66
2022/06/09 05:53:22;;;;;;;0.30;0.30;;;18.50;99.90;;;;;;4295304;33;20095;-66
2022/06/09 05:55:47;;;;;;;0.20;0.20;;;18.40;99.90;;;;;;4295456;33;20087;-66
2022/06/09 05:58:13;;;;;;;0.20;0.20;;;18.50;99.90;;;;;;4291895;33;20200;-66
2022/06/09 06:00:41;;;;;;;0.20;0.20;;;18.50;99.90;;;;;;4291988;33;20163;-67
2022/06/09 06:03:08;;;;;;;0.40;0.40;;;18.60;99.90;;;;;;4284108;33;20103;-66
2022/06/09 06:06:34;;;;;;;0.20;0.20;;;18.60;99.90;;;;;;4302073;33;20088;-65
2022/06/09 06:08:19;;;;;;;0.30;0.30;;;18.60;99.90;;;;;;4293662;33;20089;-66
2022/06/09 06:10:45;;;;;;;4.07;0.40;;;18.60;99.90;;;;;;4301449;33;20060;-66
2022/06/09 06:13:12;;;;;;;0.73;0.70;;;18.60;99.90;;;;;;4301218;33;20192;-66
2022/06/09 06:15:37;;;;;;;0.65;0.50;;;18.70;99.90;;;;;;4297452;33;20115;-66
2022/06/09 06:18:03;;;;;;;0.28;0.25;;;18.80;99.90;;;;;;4280327;33;20276;-66
2022/06/09 06:20:30;;;;;;;0.20;0.20;;;18.80;99.90;;;;;;4292633;33;20580;-66
2022/06/09 06:22:56;;;;;;;0.20;0.20;;;18.80;99.90;;;;;;4295933;33;20069;-66
2022/06/09 06:25:23;;;;;;;0.32;0.32;;;18.90;99.90;;;;;;4292932;33;20131;-66
2022/06/09 06:27:48;;;;;;;0.30;0.30;;;18.90;99.90;;;;;;4292451;33;20538;-65
2022/06/09 06:30:14;;;;;;;0.30;0.30;;;18.80;99.90;;;;;;4282998;33;20143;-66
2022/06/09 06:32:39;;;;;;;0.22;0.22;;;18.80;99.90;;;;;;4282884;33;20544;-66
2022/06/09 06:35:06;;;;;;;0.40;0.40;;;18.80;99.90;;;;;;4288668;33;20221;-65
2022/06/09 06:37:32;;;;;;;0.30;0.30;;;18.80;99.90;;;;;;4294199;33;20137;-65
2022/06/09 06:39:57;;;;;;;1.55;0.47;;;18.80;99.90;;;;;;4293348;33;20773;-65
2022/06/09 06:42:23;;;;;;;0.20;0.20;;;18.70;99.90;;;;;;4284027;33;20080;-66
2022/06/09 06:44:49;;;;;;;0.50;0.50;;;18.70;99.90;;;;;;4286209;33;20116;-66
2022/06/09 06:47:14;;;;;;;0.52;0.52;;;18.80;99.90;;;;;;4288648;33;20581;-66
2022/06/09 06:49:40;;;;;;;0.47;0.47;;;18.70;99.90;;;;;;4280616;33;20073;-66
2022/06/09 06:52:06;;;;;;;0.40;0.40;;;18.80;99.90;;;;;;4286477;33;20666;-65
2022/06/09 06:54:31;;;;;;;0.75;0.40;;;18.90;99.90;;;;;;4289059;33;20099;-65
2022/06/09 06:56:57;;;;;;;0.20;0.20;;;18.90;99.90;;;;;;4285655;33;20121;-65
2022/06/09 06:59:22;;;;;;;0.20;0.20;;;18.80;99.90;;;;;;4281791;33;21326;-65
2022/06/09 07:01:48;;;;;;;0.30;0.30;;;18.80;99.90;;;;;;4289095;33;20116;-65
2022/06/09 07:04:13;;;;;;;0.20;0.20;;;18.70;99.90;;;;;;4283877;33;20081;-65
2022/06/09 07:06:39;;;;;;;0.32;0.32;;;18.40;99.90;;;;;;4289273;33;20096;-65
2022/06/09 07:09:04;;;;;;;0.30;0.30;;;18.40;99.90;;;;;;4292037;33;20690;-65
2022/06/09 07:11:30;;;;;;;7.18;0.32;;;18.40;99.90;;;;;;4291184;33;20067;-65
2022/06/09 07:13:55;;;;;;;0.20;0.20;;;18.40;99.90;;;;;;4289244;33;20529;-65
2022/06/09 07:16:21;;;;;;;0.62;0.40;;;18.50;99.90;;;;;;4286176;33;20430;-65
2022/06/09 07:18:46;;;;;;;0.40;0.40;;;18.30;99.90;;;;;;4281837;33;20296;-65
2022/06/09 07:21:13;;;;;;;0.30;0.30;;;18.40;99.90;;;;;;4296793;33;20072;-66
2022/06/09 07:23:39;;;;;;;0.35;0.35;;;18.30;99.90;;;;;;4294336;33;20319;-65
2022/06/09 07:26:05;;;;;;;0.22;0.22;;;18.30;99.90;;;;;;4294682;33;20125;-65
2022/06/09 07:28:30;;;;;;;1.75;0.50;;;18.20;99.90;;;;;;4288217;33;20080;-65
2022/06/09 07:30:56;;;;;;;2.15;0.47;;;18.10;99.90;;;;;;4280623;33;20064;-65
2022/06/09 07:33:29;;;;;;;0.30;0.30;;;18.10;99.90;;;;;;4282875;33;20131;-65
2022/06/09 07:35:56;;;;;;;0.20;0.20;;;18.10;99.90;;;;;;4279015;33;20732;-65
2022/06/09 07:38:22;;;;;;;0.28;0.28;;;18.20;99.90;;;;;;4278596;33;20217;-65
2022/06/09 07:40:48;;;;;;;1.55;1.15;;;18.30;99.90;;;;;;4298322;33;20100;-65
2022/06/09 07:43:13;;;;;;;0.30;0.30;;;18.30;99.90;;;;;;4296340;33;20076;-65
2022/06/09 07:45:40;;;;;;;0.20;0.20;;;18.40;99.90;;;;;;4292160;33;20084;-65
2022/06/09 07:48:06;;;;;;;0.73;0.37;;;18.30;99.90;;;;;;4286076;33;21583;-64
2022/06/09 07:50:33;;;;;;;7.65;0.88;;;18.30;99.90;;;;;;4276889;33;20073;-65
2022/06/09 07:52:59;;;;;;;0.60;0.60;;;18.20;99.90;;;;;;4285850;33;20537;-64
2022/06/09 07:55:25;;;;;;;0.30;0.30;;;18.10;99.90;;;;;;4283850;33;20084;-65
2022/06/09 07:57:52;;;;;;;0.50;0.47;;;18.00;99.90;;;;;;4287131;33;20108;-66
2022/06/09 08:00:20;;;;;;;0.20;0.20;;;18.10;99.90;;;;;;4284131;33;20080;-66
2022/06/09 08:02:45;;;;;;;0.60;0.40;;;18.10;99.90;;;;;;4278712;33;20076;-65
2022/06/09 08:05:13;;;;;;;0.28;0.28;;;18.10;99.90;;;;;;4290293;33;20137;-66
2022/06/09 08:07:39;;;;;;;10.68;0.60;;;18.20;99.90;;;;;;4284314;33;20346;-66
2022/06/09 08:10:06;;;;;;;0.30;0.30;;;18.20;99.90;;;;;;4287009;33;20064;-66
2022/06/09 08:12:31;;;;;;;0.20;0.20;;;18.20;99.90;;;;;;4277438;33;20095;-66
2022/06/09 08:14:57;;;;;;;0.30;0.30;;;18.10;99.90;;;;;;4291769;33;20103;-65
2022/06/09 08:17:23;;;;;;;0.30;0.30;;;18.00;99.90;;;;;;4288650;33;20056;-66
2022/06/09 08:19:48;;;;;;;0.47;0.32;;;18.00;99.90;;;;;;4281479;33;20084;-66
2022/06/09 08:22:15;;;;;;;0.60;0.47;;;18.00;99.90;;;;;;4285925;33;20076;-66
2022/06/09 08:24:40;;;;;;;0.37;0.37;;;18.00;99.90;;;;;;4287210;33;20080;-66
2022/06/09 08:27:06;;;;;;;0.30;0.30;;;18.00;99.90;;;;;;4290668;33;20157;-65
2022/06/09 08:29:32;;;;;;;0.30;0.30;;;18.10;99.90;;;;;;4270975;33;20894;-65
2022/06/09 08:31:58;;;;;;;0.30;0.30;;;18.00;99.90;;;;;;4283400;33;20079;-65
2022/06/09 08:34:25;;;;;;;0.30;0.30;;;18.00;99.90;;;;;;4290366;33;20084;-65
2022/06/09 08:36:50;;;;;;;0.25;0.25;;;18.10;99.90;;;;;;4290289;33;20188;-65
2022/06/09 08:39:16;;;;;;;0.37;0.37;;;18.20;99.90;;;;;;4288879;33;20096;-65
2022/06/09 08:41:47;;;;;;;0.28;0.28;;;18.10;99.90;;;;;;4289737;33;20141;-64
2022/06/09 08:44:52;;;;;;;0.40;0.40;;;18.20;99.90;;;;;;4289547;33;20179;-65
2022/06/09 08:47:30;;;;;;;0.30;0.30;;;18.40;99.90;;;;;;4285487;33;20083;-66
2022/06/09 08:50:12;;;;;;;0.20;0.20;;;18.40;99.90;;;;;;4290363;33;20524;-66
2022/06/09 08:52:51;;;;;;;0.35;0.35;;;18.60;99.90;;;;;;4284111;33;20112;-65
2022/06/09 08:55:33;;;;;;;0.40;0.40;;;18.60;99.90;;;;;;4281177;33;20149;-66
2022/06/09 08:58:04;;;;;;;0.40;0.40;;;18.60;99.90;;;;;;4283561;33;20108;-66
2022/06/09 09:00:38;;;;;;;0.37;0.37;;;18.60;99.90;;;;;;4283295;33;20092;-66
2022/06/09 09:03:17;;;;;;;0.30;0.30;;;18.70;99.90;;;;;;4277299;33;20467;-66
2022/06/09 09:05:49;;;;;;;0.30;0.30;;;18.70;99.90;;;;;;4291211;33;20063;-66
2022/06/09 09:08:14;;;;;;;0.37;0.37;;;18.90;99.90;;;;;;4284655;33;20088;-66
2022/06/09 09:11:20;;;;;;;0.20;0.20;;;18.80;99.90;;;;;;4294126;33;20732;-67
2022/06/09 09:14:12;;;;;;;0.30;0.30;;;18.80;99.90;;;;;;4284682;33;20535;-64
2022/06/09 09:16:43;;;;;;;0.30;0.30;;;18.80;99.90;;;;;;4290410;33;20543;-65
2022/06/09 09:19:18;;;;;;;0.22;0.22;;;18.80;99.90;;;;;;4284826;33;20084;-64
2022/06/09 09:21:55;;;;;;;0.22;0.22;;;18.80;99.90;;;;;;4289807;33;20288;-64
2022/06/09 09:24:44;;;;;;;0.62;0.40;;;18.90;99.90;;;;;;4295265;33;20178;-64
2022/06/09 09:27:17;;;;;;;0.25;0.25;;;18.80;99.90;;;;;;4275875;33;20462;-65
2022/06/09 09:30:02;;;;;;;0.35;0.35;;;18.80;99.90;;;;;;4278733;33;20068;-64
2022/06/09 09:32:35;;;;;;;0.30;0.30;;;18.80;99.90;;;;;;4281811;33;20726;-64
2022/06/09 09:35:00;;;;;;;0.98;0.60;;;18.90;99.90;;;;;;4287871;33;20589;-66
2022/06/09 09:37:32;;;;;;;0.43;0.43;;;18.90;99.90;;;;;;4295604;33;20088;-64
2022/06/09 09:40:13;;;;;;;0.40;0.40;;;18.90;99.90;;;;;;4276499;33;20402;-64
2022/06/09 09:42:42;;;;;;;0.30;0.30;;;18.80;99.90;;;;;;4290275;33;20620;-66
2022/06/09 09:45:11;;;;;;;0.45;0.35;;;18.70;99.90;;;;;;4291040;33;20073;-66
2022/06/09 09:47:58;;;;;;;0.45;0.45;;;18.70;99.90;;;;;;4289725;33;20116;-64
2022/06/09 09:50:36;;;;;;;0.40;0.40;;;18.80;99.90;;;;;;4280587;33;20088;-67
2022/06/09 09:53:06;;;;;;;0.50;0.50;;;18.90;99.90;;;;;;4285113;33;20768;-66
2022/06/09 09:55:38;;;;;;;0.30;0.30;;;18.90;99.90;;;;;;4289943;33;21025;-65
2022/06/09 09:58:14;;;;;;;0.40;0.40;;;18.90;99.90;;;;;;4278781;33;20467;-65
2022/06/09 10:00:40;;;;;;;0.30;0.30;;;18.90;99.90;;;;;;4283553;33;20085;-65
2022/06/09 10:08:53;;;;;;;0.28;0.28;;;19.10;99.90;;;;;;4289928;33;20671;-65
2022/06/09 10:12:08;;;;;;;5.68;0.47;;;19.00;99.90;;;;;;4294870;33;20133;-65
2022/06/09 10:15:01;;;;;;;0.30;0.30;;;19.00;99.90;;;;;;4284316;33;20113;-65
2022/06/09 10:18:07;;;;;;;0.30;0.30;;;18.90;99.90;;;;;;4288190;33;20085;-66
2022/06/09 10:20:43;;;;;;;0.40;0.40;;;19.00;99.90;;;;;;4294610;33;20140;-64
2022/06/09 10:23:11;;;;;;;0.30;0.30;;;19.10;99.90;;;;;;4290648;33;20080;-65
2022/06/09 10:25:51;;;;;;;0.30;0.30;;;19.10;99.90;;;;;;4289326;33;20136;-65
2022/06/09 10:28:57;;;;;;;0.30;0.30;;;19.20;99.90;;;;;;4278253;33;20734;-64
2022/06/09 10:31:32;;;;;;;0.30;0.30;;;19.30;99.90;;;;;;4288045;33;20508;-64
2022/06/09 10:34:37;;;;;;;0.30;0.30;;;19.40;99.90;;;;;;4280941;33;20113;-65
2022/06/09 10:37:25;;;;;;;0.40;0.40;;;19.40;99.90;;;;;;4285600;33;20140;-66
2022/06/09 10:39:59;;;;;;;0.20;0.20;;;19.40;99.90;;;;;;4293297;33;20124;-66
2022/06/09 10:42:33;;;;;;;0.52;0.30;;;19.30;99.90;;;;;;4291411;33;20537;-65
2022/06/09 10:45:22;;;;;;;0.20;0.20;;;19.30;99.90;;;;;;4291321;33;20458;-65
2022/06/09 10:56:46;;;;;;;0.30;0.30;;;19.40;99.90;;;;;;4291613;33;20454;-65
2022/06/09 10:59:32;;;;;;;0.20;0.20;;;19.40;99.90;;;;;;4282570;33;20755;-65
2022/06/09 11:01:59;;;;;;;1.15;0.50;;;19.40;99.90;;;;;;4286981;33;20124;-65
2022/06/09 11:04:26;;;;;;;0.20;0.20;;;19.40;99.90;;;;;;4281924;33;20095;-65
2022/06/09 11:07:11;;;;;;;0.30;0.30;;;19.30;99.90;;;;;;4292882;33;20414;-65
2022/06/09 11:09:57;;;;;;;18.73;1.10;;;19.40;99.90;;;;;;4294604;33;20562;-65
2022/06/09 11:12:38;;;;;;;0.40;0.40;;;19.40;99.90;;;;;;4292359;33;20366;-65
2022/06/09 11:15:28;;;;;;;0.20;0.20;;;19.40;99.90;;;;;;4296038;33;20463;-64
2022/06/09 11:18:13;;;;;;;0.22;0.22;;;19.50;99.90;;;;;;4282852;33;21001;-66
2022/06/09 11:21:06;;;;;;;0.20;0.20;;;19.60;99.90;;;;;;4289965;33;20079;-66
2022/06/09 11:24:04;;;;;;;2.10;0.60;;;19.60;99.90;;;;;;4289193;33;20084;-65
2022/06/09 11:26:37;;;;;;;1.35;0.50;;;19.60;99.90;;;;;;4292383;33;21174;-65
2022/06/09 11:29:13;;;;;;;0.30;0.30;;;19.60;99.90;;;;;;4283242;33;20588;-66
2022/06/09 11:31:52;;;;;;;0.28;0.28;;;19.60;99.90;;;;;;4287466;33;20109;-66
2022/06/09 11:34:45;;;;;;;0.30;0.30;;;19.70;99.90;;;;;;4285683;33;20104;-66
2022/06/09 11:37:15;;;;;;;0.30;0.30;;;19.70;99.90;;;;;;4290429;33;20545;-66
2022/06/09 11:39:47;;;;;;;;;;;19.90;99.90;;;;;;4293387;33;20076;-66
2022/06/09 11:42:40;;;;;;;0.30;0.30;;;19.90;99.90;;;;;;4285368;33;20331;-67
2022/06/09 11:45:27;;;;;;;0.37;0.37;;;19.90;99.90;;;;;;4289574;33;20064;-65
2022/06/09 11:47:56;;;;;;;0.20;0.20;;;20.00;99.90;;;;;;4288067;33;20300;-65
2022/06/09 11:50:28;;;;;;;0.40;0.40;;;19.90;99.90;;;;;;4293045;33;20193;-65
2022/06/09 11:52:57;;;;;;;0.40;0.40;;;19.80;99.90;;;;;;4283402;33;20081;-65
2022/06/09 11:56:11;;;;;;;0.75;0.35;;;19.90;99.90;;;;;;4292572;33;20080;-65
2022/06/09 11:58:43;;;;;;;0.30;0.30;;;20.00;99.90;;;;;;4262278;33;20366;-65
2022/06/09 12:01:17;;;;;;;0.20;0.20;;;20.00;99.90;;;;;;4292099;33;20101;-65
2022/06/09 12:04:23;;;;;;;0.57;0.37;;;20.10;99.90;;;;;;4281973;33;20591;-65
2022/06/09 12:07:16;;;;;;;3.10;0.52;;;20.20;99.90;;;;;;4295314;33;20068;-65
2022/06/09 12:09:53;;;;;;;1.05;0.43;;;20.20;99.90;;;;;;4294015;33;20140;-65
2022/06/09 12:12:40;;;;;;;0.20;0.20;;;20.20;99.90;;;;;;4298885;33;20080;-65
2022/06/09 12:15:22;;;;;;;0.40;0.40;;;20.20;99.90;;;;;;4288126;33;20190;-65
2022/06/09 12:18:24;;;;;;;0.30;0.30;;;20.20;99.90;;;;;;4286512;33;20092;-65
2022/06/09 12:20:54;;;;;;;0.30;0.30;;;20.20;99.90;;;;;;4303568;33;20108;-65
2022/06/09 12:23:28;;;;;;;1.00;0.50;;;20.20;99.90;;;;;;4298636;33;20493;-65
2022/06/09 12:26:12;;;;;;;0.20;0.20;;;20.10;99.90;;;;;;4301751;33;20136;-66
2022/06/09 12:28:56;;;;;;;0.50;0.50;;;20.10;99.90;;;;;;4293091;33;20262;-65
2022/06/09 12:31:31;;;;;;;37.58;1.23;;;20.20;99.90;;;;;;4292853;33;20072;-65
2022/06/09 12:34:16;;;;;;;0.30;0.30;;;20.30;99.90;;;;;;4290013;33;20100;-65
2022/06/09 12:36:51;;;;;;;0.40;0.40;;;20.40;99.90;;;;;;4301396;33;20064;-65
2022/06/09 12:39:23;;;;;;;0.20;0.20;;;20.30;99.90;;;;;;4299037;33;20092;-65
2022/06/09 12:41:52;;;;;;;0.30;0.30;;;20.30;99.90;;;;;;4297156;33;20093;-65
2022/06/09 12:44:28;;;;;;;0.43;0.43;;;20.30;99.90;;;;;;4296447;33;20400;-65
2022/06/09 12:47:02;;;;;;;0.30;0.30;;;20.20;99.90;;;;;;4301214;33;20470;-65
2022/06/09 12:49:36;;;;;;;1.98;0.45;;;20.00;99.90;;;;;;4293908;33;20091;-66
2022/06/09 12:52:04;;;;;;;2.40;0.62;;;19.80;99.90;;;;;;4282545;33;20431;-65
2022/06/09 12:54:34;;;;;;;0.22;0.22;;;19.80;99.90;;;;;;4284125;33;20076;-66
2022/06/09 12:57:07;;;;;;;0.37;0.37;;;19.60;99.90;;;;;;4300889;33;20534;-65
2022/06/09 12:59:37;;;;;;;0.20;0.20;;;19.60;99.90;;;;;;4287124;33;20080;-65
2022/06/09 13:02:12;;;;;;;0.30;0.30;;;19.50;99.90;;;;;;4290519;33;20782;-65
2022/06/09 13:04:49;;;;;;;0.50;0.50;;;19.50;99.90;;;;;;4295370;33;20080;-65
2022/06/09 13:07:34;;;;;;;0.40;0.40;;;19.50;99.90;;;;;;4293086;33;20072;-65
2022/06/09 13:10:04;;;;;;;0.40;0.40;;;19.50;99.90;;;;;;4297330;33;20175;-65
2022/06/09 13:13:02;;;;;;;0.30;0.30;;;19.50;99.90;;;;;;4303144;33;20084;-65
2022/06/09 13:15:38;;;;;;;0.65;0.50;;;19.60;99.90;;;;;;4298906;33;20172;-65
2022/06/09 13:18:15;;;;;;;0.40;0.40;;;19.60;99.90;;;;;;4293192;33;20158;-65
2022/06/09 13:20:49;;;;;;;0.40;0.40;;;19.60;99.90;;;;;;4301813;33;20140;-65
2022/06/09 13:23:15;;;;;;;0.30;0.30;;;19.70;99.90;;;;;;4286900;33;20084;-65
2022/06/09 13:25:43;;;;;;;0.20;0.20;;;19.70;99.90;;;;;;4300758;33;20087;-65
2022/06/09 13:28:30;;;;;;;0.30;0.30;;;19.70;99.90;;;;;;4293222;33;20501;-65
2022/06/09 13:30:57;;;;;;;0.98;0.73;;;19.70;99.90;;;;;;4297293;33;20132;-65